KMWC

Lawrence J Timmerman Airport

Milwaukee, Wisconsin, USA
METAR KMWC 221445Z 27004KT 10SM SKC 06/M02 A3003
Observed Flight Rules
Oct-22 @ 14:45 UTC (32 minutes ago) Visual Flight Rules
Wind Visibility Clouds
270° at 4 knots 10 miles
  • Clear skies
Temperatures Readings
Current 6°C / 43°F
Dewpoint -2°C / 28°F
Humidity 57%
Altimeter 30.03" Hg
Pressure 1017 hPa
Elevation 227
METAR KMWC 221445Z 27004KT 10SM SKC 06/M02 A3003
Observed Flight Rules
Oct-22 @ 14:45 UTC
(32 minutes ago)
VFR
Wind Visibility
270° at 4 knots 10 miles
Clouds
  • Clear skies
Temperature Dewpoint
6°C / 43°F -2°C / 28°F
Humidity Altimeter Pressure
57% 30.03" Hg 1017 hPa